NCRGNFTF

Guest
Details From NCRG - Rarotonga Intl
To NFTF - Fua Amotu Intl
Flight Number -
Tags generated
Created
Modified
Stats Distance 859 nm / 1,591 km
Max Altitude 34,000 ft / 10,363 m
Waypoints 6
Social Downloads 5
Likes 0
Share VATSIM

Download

Looking for another format? Having issues loading an existing format? Contact us
Advertisement - Login to hide

Notes

Basic altitude profile: - Ascent Rate: 2500ft/min - Ascent Speed: 250kts - Cruise Altitude: 35000ft - Cruise Speed: 420kts - Descent Rate: 1500ft/min - Descent Speed: 250kts Options: - Use NATs: yes - Use PACOTS: yes - Use low airways: yes - Use high airways: yes

Route

NCRG RG B598 TBU NFTF

ID Type Via Altitude Latitude Longitude Leg Dist Tot Dist Heading (true) Name
O NCRG APT - 0 ft / 0 m -21.20274˚ -159.80556˚ - 0 nm - Rarotonga Intl
RG VOR - 100 ft / 30 m -21.20167˚ -159.81444˚ 0 nm 0 nm 277° / 277° RAROTONGA VOR-DME
NOPAN FIX B598 (AWY-LO) 34,000 ft / 10,363 m -21.36917˚ -165.00000˚ 290 nm 290 nm 267° / 269° -
VISIK FIX B598 (AWY-HI) 34,000 ft / 10,363 m -21.35500˚ -171.77194˚ 378 nm 669 nm 269° / 271° -
TBU VOR B598 (AWY-LO) 6,000 ft / 1,829 m -21.24417˚ -175.14861˚ 189 nm 858 nm 271° / 273° FUA AMOTU VOR-DME
O NFTF APT - 0 ft / 0 m -21.24249˚ -175.14457˚ 0 nm 858 nm 66° / 66° Fua Amotu Intl

Altitude Profile

Advertisement - Login to hide

Weather


0- 5 10 15 20 25 30 35+ Temperature / ° C

Clouds and Precipitation
Forecast for 2018-05-25 18:00 UTC. Updated 6 minutes ago

Ground ~20,000 ft ~40,000 ft Winds

NCRG

Details ICAO NCRG (RAR)
Name Rarotonga Intl
Region Cook Islands
Timezone Pacific/Rarotonga (UTC-10.0)
Stats Elevation 19 ft / 6 m (AMSL)
Location -21.202739° -159.805555°
Runways 1
Magnetic Variation 13.943° E

METAR

NCRG 251700Z 08006KT 9999 FEW021 24/21 Q1017 RMK DEW

Decode

TAF

TAF NCRG 251119Z 2512/2612 10007KT 9999 FEW020

Decode

Departure Runways

ID Width Length Bearing (true) Bearing (mag) Surface Threshold Offset Overrun Length
08 150 ft / 46 m 7,629 ft / 2,325 m 89.99° 76.05° Concrete 400 ft / 122 m 100 ft / 30 m
26 150 ft / 46 m 7,629 ft / 2,325 m 269.98° 256.04° Concrete 0 ft / 0 m 0 ft / 0 m

NFTF

Details ICAO NFTF (TBU)
Name Fua Amotu Intl
Region Fiji and Tonga
Timezone Pacific/Tongatapu (UTC+13.0)
Stats Elevation 126 ft / 38 m (AMSL)
Location -21.242493° -175.144569°
Runways 2
Magnetic Variation 13.685° E

METAR

NFTF 251700Z 02004KT 1000 BR FEW009 SCT017 23/22 Q1013

Decode

TAF

TAF NFTF 251120Z 2512/2612 07007KT 9999 FEW016

Decode

Destination Runways

ID Width Length Bearing (true) Bearing (mag) Surface Threshold Offset Overrun Length
11 148 ft / 45 m 8,967 ft / 2,733 m 122.10° 108.42° Asphalt 0 ft / 0 m 194 ft / 59 m
17 194 ft / 59 m 4,960 ft / 1,512 m 182.40° 168.72° Unknown 0 ft / 0 m 0 ft / 0 m
29 148 ft / 45 m 8,967 ft / 2,733 m 302.09° 288.41° Asphalt 0 ft / 0 m 194 ft / 59 m
35 194 ft / 59 m 4,960 ft / 1,512 m 2.40° 348.72° Unknown 0 ft / 0 m 0 ft / 0 m

Popular Alternatives